createdAt,value
2019-05-25T00:02:11.514Z,34.70
2019-05-25T00:04:40.221Z,35.00
2019-05-25T00:07:08.957Z,34.50
2019-05-25T00:09:37.685Z,34.40
2019-05-25T00:12:06.581Z,34.70
2019-05-25T00:14:35.335Z,34.90
2019-05-25T00:17:03.991Z,35.10
2019-05-25T00:19:32.798Z,35.20
2019-05-25T00:22:01.800Z,35.70
2019-05-25T00:24:30.471Z,35.60
2019-05-25T00:26:59.175Z,35.80
2019-05-25T00:29:27.830Z,35.60
2019-05-25T00:31:56.522Z,35.90
2019-05-25T00:34:25.195Z,36.00
2019-05-25T00:36:53.963Z,35.90
2019-05-25T00:39:22.651Z,36.60
2019-05-25T00:41:51.408Z,36.70
2019-05-25T00:44:20.112Z,36.70
2019-05-25T00:46:48.815Z,36.70
2019-05-25T00:49:17.479Z,36.70
2019-05-25T00:51:46.202Z,36.70
2019-05-25T00:54:27.012Z,36.60
2019-05-25T00:56:45.287Z,36.40
2019-05-25T00:59:14.017Z,36.40
2019-05-25T01:01:42.670Z,36.40
2019-05-25T01:04:11.388Z,36.40
2019-05-25T01:06:40.057Z,36.70
2019-05-25T01:09:08.776Z,36.80
2019-05-25T01:11:37.444Z,37.10
2019-05-25T01:14:06.137Z,37.40
2019-05-25T01:16:34.810Z,37.40
2019-05-25T01:19:03.844Z,37.20
2019-05-25T01:21:33.315Z,37.00
2019-05-25T01:24:02.007Z,37.00
2019-05-25T01:26:30.703Z,37.20
2019-05-25T01:28:59.630Z,37.40
2019-05-25T01:31:28.342Z,37.30
2019-05-25T01:33:57.000Z,37.50
2019-05-25T01:36:25.709Z,37.40
2019-05-25T01:38:54.403Z,37.50
2019-05-25T01:41:23.370Z,37.50
2019-05-25T01:43:52.072Z,37.80
2019-05-25T01:46:20.772Z,37.60
2019-05-25T01:48:49.496Z,37.80
2019-05-25T01:51:18.203Z,38.40
2019-05-25T01:53:46.908Z,38.10
2019-05-25T01:56:15.625Z,38.20
2019-05-25T01:58:44.305Z,38.10
2019-05-25T02:01:12.983Z,38.30
2019-05-25T02:03:41.841Z,38.20
2019-05-25T02:06:10.559Z,38.50
2019-05-25T02:08:39.304Z,38.60
2019-05-25T02:11:08.135Z,38.70
2019-05-25T02:13:36.829Z,39.00
2019-05-25T02:16:05.522Z,39.30
2019-05-25T02:18:34.211Z,39.40
2019-05-25T02:21:02.879Z,39.40
2019-05-25T02:23:31.952Z,39.50
2019-05-25T02:26:00.612Z,39.50
2019-05-25T02:28:29.443Z,39.60
2019-05-25T02:30:58.113Z,39.60
2019-05-25T02:33:26.814Z,39.70
2019-05-25T02:35:55.493Z,39.80
2019-05-25T02:38:24.183Z,39.90
2019-05-25T02:40:52.842Z,39.80
2019-05-25T02:43:21.635Z,39.70
2019-05-25T02:45:50.311Z,39.50
2019-05-25T02:48:19.218Z,39.90
2019-05-25T02:50:48.218Z,39.80
2019-05-25T02:53:16.929Z,39.80
2019-05-25T02:55:45.860Z,39.70
2019-05-25T02:58:14.542Z,40.00
2019-05-25T03:00:43.216Z,40.10
2019-05-25T03:03:11.928Z,40.10
2019-05-25T03:05:40.938Z,40.10
2019-05-25T03:08:09.655Z,40.10
2019-05-25T03:10:38.457Z,40.60
2019-05-25T03:13:07.162Z,40.70
2019-05-25T03:15:35.898Z,40.50
2019-05-25T03:18:04.785Z,40.80
2019-05-25T03:20:33.466Z,40.80
2019-05-25T03:23:02.492Z,41.00
2019-05-25T03:25:31.228Z,41.20
2019-05-25T03:27:59.919Z,41.30
2019-05-25T03:30:33.929Z,41.50
2019-05-25T03:33:02.791Z,41.50
2019-05-25T03:35:31.665Z,41.40
2019-05-25T03:38:00.388Z,41.70
2019-05-25T03:40:29.366Z,41.70
2019-05-25T03:42:58.097Z,41.90
2019-05-25T03:45:26.779Z,41.90
2019-05-25T03:47:55.531Z,41.90
2019-05-25T03:50:24.193Z,42.10
2019-05-25T03:52:52.953Z,42.50
2019-05-25T03:55:21.624Z,42.40
2019-05-25T03:57:50.323Z,42.50
2019-05-25T04:00:30.516Z,42.80
2019-05-25T04:02:59.319Z,42.70
2019-05-25T04:05:27.977Z,42.80
2019-05-25T04:07:56.719Z,42.90
2019-05-25T04:10:25.382Z,42.90
2019-05-25T04:12:54.085Z,42.80
2019-05-25T04:15:22.791Z,43.20
2019-05-25T04:17:51.516Z,43.10
2019-05-25T04:20:20.227Z,43.20
2019-05-25T04:22:49.092Z,43.20
2019-05-25T04:25:18.234Z,43.60
2019-05-25T04:27:46.988Z,43.30
2019-05-25T04:30:16.095Z,43.50
2019-05-25T04:32:44.803Z,43.50
2019-05-25T04:35:13.628Z,43.40
2019-05-25T04:37:42.348Z,43.70
2019-05-25T04:40:11.244Z,44.30
2019-05-25T04:42:39.939Z,44.10
2019-05-25T04:45:09.239Z,44.40
2019-05-25T04:47:38.237Z,44.30
2019-05-25T04:50:08.762Z,44.00
2019-05-25T04:52:40.972Z,43.60
2019-05-25T04:55:08.267Z,43.80
2019-05-25T04:57:37.059Z,43.80
2019-05-25T05:00:06.839Z,43.70
2019-05-25T05:02:35.529Z,44.00
2019-05-25T05:05:08.020Z,44.00
2019-05-25T05:07:36.722Z,43.90
2019-05-25T05:10:07.221Z,44.30
2019-05-25T05:12:35.923Z,44.10
2019-05-25T05:15:06.413Z,43.90
2019-05-25T05:17:35.203Z,44.20
2019-05-25T05:20:05.581Z,44.00
2019-05-25T05:22:34.347Z,44.00
2019-05-25T05:25:03.226Z,44.00
2019-05-25T05:27:32.012Z,44.40
2019-05-25T05:30:00.797Z,44.50
2019-05-25T05:32:29.517Z,44.40
2019-05-25T05:34:58.193Z,44.50
2019-05-25T05:37:27.684Z,44.80
2019-05-25T05:39:57.643Z,44.90
2019-05-25T05:42:27.468Z,45.10
2019-05-25T05:44:57.339Z,45.00
2019-05-25T05:47:26.871Z,44.50
2019-05-25T05:49:55.935Z,44.50
2019-05-25T05:52:26.961Z,44.80
2019-05-25T05:54:58.819Z,44.80
2019-05-25T05:57:27.532Z,45.00
2019-05-25T05:59:56.223Z,45.10
2019-05-25T06:02:24.888Z,44.90
2019-05-25T06:04:53.578Z,45.30
2019-05-25T06:07:22.258Z,45.40
2019-05-25T06:09:50.943Z,45.40
2019-05-25T06:12:19.615Z,45.80
2019-05-25T06:14:48.274Z,45.90
2019-05-25T06:17:17.167Z,45.80
2019-05-25T06:19:45.838Z,45.90
2019-05-25T06:22:14.676Z,46.30
2019-05-25T06:24:43.463Z,46.10
2019-05-25T06:27:26.535Z,46.00
2019-05-25T06:29:42.713Z,46.20
2019-05-25T06:32:11.398Z,46.20
2019-05-25T06:34:40.189Z,45.90
2019-05-25T06:37:08.887Z,46.10
2019-05-25T06:39:37.627Z,46.00
2019-05-25T06:42:06.462Z,46.20
2019-05-25T06:44:35.236Z,45.90
2019-05-25T06:47:03.956Z,46.20
2019-05-25T06:49:32.641Z,46.40
2019-05-25T06:52:01.423Z,46.40
2019-05-25T06:54:30.130Z,46.50
2019-05-25T06:56:58.971Z,46.60
2019-05-25T06:59:27.943Z,46.40
2019-05-25T07:01:56.689Z,46.40
2019-05-25T07:04:25.372Z,46.30
2019-05-25T07:06:54.043Z,46.30
2019-05-25T07:09:23.487Z,46.20
2019-05-25T07:11:52.856Z,45.80
2019-05-25T07:14:21.553Z,45.80
2019-05-25T07:16:50.234Z,45.80
2019-05-25T07:19:19.489Z,45.90
2019-05-25T07:21:48.188Z,46.00
2019-05-25T07:24:16.978Z,45.90
2019-05-25T07:26:45.634Z,45.80
2019-05-25T07:29:14.329Z,45.40
2019-05-25T07:31:43.023Z,45.20
2019-05-25T07:34:11.727Z,44.80
2019-05-25T07:36:40.442Z,45.30
2019-05-25T07:39:09.147Z,45.10
2019-05-25T07:41:37.835Z,44.80
2019-05-25T07:44:06.584Z,44.40
2019-05-25T07:46:35.301Z,44.10
2019-05-25T07:49:04.019Z,44.30
2019-05-25T07:51:32.895Z,44.00
2019-05-25T07:54:01.625Z,44.30
2019-05-25T07:56:30.283Z,44.00
2019-05-25T07:58:59.049Z,43.70
2019-05-25T08:01:27.754Z,43.50
2019-05-25T08:03:56.423Z,43.20
2019-05-25T08:06:25.127Z,42.90
2019-05-25T08:08:53.975Z,42.30
2019-05-25T08:11:22.653Z,42.10
2019-05-25T08:13:51.498Z,42.10
2019-05-25T08:16:20.314Z,42.10
2019-05-25T08:18:48.993Z,42.40
2019-05-25T08:21:17.676Z,42.50
2019-05-25T08:23:46.392Z,42.20
2019-05-25T08:26:15.056Z,41.90
2019-05-25T08:28:43.942Z,42.00
2019-05-25T08:31:12.637Z,42.30
2019-05-25T08:33:41.520Z,42.60
2019-05-25T08:36:10.215Z,42.60
2019-05-25T08:38:38.921Z,41.60
2019-05-25T08:41:07.658Z,41.30
2019-05-25T08:43:36.437Z,41.30
2019-05-25T08:46:05.559Z,41.30
2019-05-25T08:48:34.475Z,41.40
2019-05-25T08:51:03.402Z,41.40
2019-05-25T08:53:41.127Z,41.40
2019-05-25T08:56:02.521Z,41.40
2019-05-25T08:58:31.203Z,41.30
2019-05-25T09:00:59.928Z,41.00
2019-05-25T09:03:28.607Z,41.20
2019-05-25T09:05:57.357Z,41.90
2019-05-25T09:08:26.072Z,41.00
2019-05-25T09:10:54.771Z,40.90
2019-05-25T09:13:23.455Z,40.80
2019-05-25T09:15:52.220Z,41.90
2019-05-25T09:18:21.119Z,41.10
2019-05-25T09:20:49.887Z,41.30
2019-05-25T09:23:18.862Z,41.20
2019-05-25T09:25:47.780Z,41.20
2019-05-25T09:28:16.518Z,39.80
2019-05-25T09:30:45.187Z,40.00
2019-05-25T09:33:14.067Z,39.80
2019-05-25T09:35:42.814Z,39.60
2019-05-25T09:38:11.530Z,39.60
2019-05-25T09:40:40.259Z,39.60
2019-05-25T09:43:08.951Z,39.60
2019-05-25T09:45:37.668Z,39.60
2019-05-25T09:48:06.342Z,39.00
2019-05-25T09:50:35.030Z,39.00
2019-05-25T09:53:03.934Z,38.70
2019-05-25T09:55:32.638Z,38.50
2019-05-25T09:58:01.304Z,38.80
2019-05-25T10:00:30.015Z,39.30
2019-05-25T10:02:58.732Z,38.60
2019-05-25T10:05:27.402Z,38.30
2019-05-25T10:07:56.102Z,37.50
2019-05-25T10:10:24.807Z,37.60
2019-05-25T10:12:53.488Z,37.70
2019-05-25T10:15:22.251Z,37.40
2019-05-25T10:17:51.207Z,37.40
2019-05-25T10:20:20.303Z,37.70
2019-05-25T10:22:48.991Z,38.20
2019-05-25T10:25:18.267Z,38.00
2019-05-25T10:27:47.007Z,37.90
2019-05-25T10:30:16.433Z,37.20
2019-05-25T10:32:45.145Z,37.50
2019-05-25T10:35:14.757Z,37.90
2019-05-25T10:37:43.465Z,37.50
2019-05-25T10:40:12.215Z,37.20
2019-05-25T10:42:40.895Z,37.60
2019-05-25T10:45:10.501Z,37.40
2019-05-25T10:47:39.182Z,37.30
2019-05-25T10:50:09.018Z,37.30
2019-05-25T10:52:37.806Z,37.50
2019-05-25T10:55:09.202Z,38.10
2019-05-25T10:57:38.504Z,37.40
2019-05-25T11:00:12.056Z,37.20
2019-05-25T11:02:40.726Z,37.50
2019-05-25T11:05:10.457Z,37.40
2019-05-25T11:07:39.130Z,37.40
2019-05-25T11:10:09.921Z,37.60
2019-05-25T11:12:38.607Z,36.70
2019-05-25T11:15:08.479Z,37.00
2019-05-25T11:17:37.196Z,37.20
2019-05-25T11:20:11.568Z,36.50
2019-05-25T11:22:40.233Z,36.60
2019-05-25T11:25:10.240Z,36.10
2019-05-25T11:27:40.053Z,35.90
2019-05-25T11:30:11.272Z,36.50
2019-05-25T11:32:40.172Z,36.60
2019-05-25T11:35:10.370Z,36.50
2019-05-25T11:37:39.057Z,36.30
2019-05-25T11:40:12.526Z,36.20
2019-05-25T11:42:41.207Z,36.10
2019-05-25T11:45:12.033Z,36.10
2019-05-25T11:47:40.738Z,36.10
2019-05-25T11:50:10.651Z,36.10
2019-05-25T11:52:39.562Z,36.20
2019-05-25T11:55:09.418Z,36.10
2019-05-25T11:57:38.124Z,35.80
2019-05-25T12:00:24.919Z,35.80
2019-05-25T12:02:45.908Z,36.00
2019-05-25T12:05:15.199Z,35.70
2019-05-25T12:07:45.025Z,35.60
2019-05-25T12:10:14.627Z,35.60
2019-05-25T12:12:43.326Z,35.80
2019-05-25T12:15:12.493Z,35.50
2019-05-25T12:17:41.194Z,35.60
2019-05-25T12:20:11.217Z,36.60
2019-05-25T12:22:40.002Z,36.00
2019-05-25T12:25:09.198Z,35.90
2019-05-25T12:27:38.200Z,35.60
2019-05-25T12:30:08.377Z,35.60
2019-05-25T12:32:37.341Z,35.60
2019-05-25T12:35:25.323Z,35.70
2019-05-25T12:37:53.981Z,35.10
2019-05-25T12:40:22.683Z,35.20
2019-05-25T12:42:51.386Z,34.50
2019-05-25T12:45:20.110Z,34.70
2019-05-25T12:47:48.806Z,34.30
2019-05-25T12:50:18.003Z,34.20
2019-05-25T12:52:46.752Z,34.10
2019-05-25T12:55:15.624Z,34.00
2019-05-25T12:57:44.468Z,34.00
2019-05-25T13:00:16.157Z,34.10
2019-05-25T13:02:43.921Z,34.00
2019-05-25T13:05:12.908Z,33.80
2019-05-25T13:07:41.601Z,34.00
2019-05-25T13:10:10.542Z,34.20
2019-05-25T13:12:39.244Z,33.80
2019-05-25T13:15:08.122Z,34.30
2019-05-25T13:17:36.995Z,34.20
2019-05-25T13:20:07.621Z,34.40
2019-05-25T13:22:36.324Z,34.00
2019-05-25T13:25:07.282Z,34.00
2019-05-25T13:27:35.943Z,33.80
2019-05-25T13:30:06.463Z,34.50
2019-05-25T13:32:35.245Z,33.80
2019-05-25T13:35:08.025Z,34.10
2019-05-25T13:37:36.702Z,34.10
2019-05-25T13:40:07.054Z,34.20
2019-05-25T13:42:35.758Z,34.20
2019-05-25T13:45:07.191Z,34.20
2019-05-25T13:47:35.878Z,33.30
2019-05-25T13:50:07.876Z,33.40
2019-05-25T13:52:36.610Z,33.60
2019-05-25T13:55:06.914Z,34.00
2019-05-25T13:57:35.744Z,33.60
2019-05-25T14:00:06.356Z,33.20
2019-05-25T14:02:35.208Z,33.00
2019-05-25T14:05:05.816Z,33.20
2019-05-25T14:07:34.510Z,32.80
2019-05-25T14:10:04.391Z,32.70
2019-05-25T14:12:33.077Z,32.80
2019-05-25T14:15:01.873Z,32.70
2019-05-25T14:17:30.594Z,32.40
2019-05-25T14:19:59.494Z,32.60
2019-05-25T14:22:28.200Z,32.60
2019-05-25T14:24:56.870Z,32.70
2019-05-25T14:27:25.575Z,31.80
2019-05-25T14:29:54.238Z,32.10
2019-05-25T14:32:22.957Z,32.10
2019-05-25T14:34:51.708Z,32.50
2019-05-25T14:37:20.400Z,32.80
2019-05-25T14:39:49.194Z,32.90
2019-05-25T14:42:17.876Z,32.70
2019-05-25T14:44:46.594Z,32.50
2019-05-25T14:47:15.271Z,32.90
2019-05-25T14:49:44.031Z,32.90
2019-05-25T14:52:12.941Z,32.60
2019-05-25T14:54:41.808Z,32.80
2019-05-25T14:57:10.605Z,32.90
2019-05-25T14:59:39.281Z,32.70
2019-05-25T15:02:07.984Z,32.40
2019-05-25T15:04:36.686Z,32.40
2019-05-25T15:07:05.539Z,32.30
2019-05-25T15:09:34.468Z,32.20
2019-05-25T15:12:03.142Z,32.30
2019-05-25T15:14:31.839Z,32.40
2019-05-25T15:17:00.977Z,32.90
2019-05-25T15:19:30.013Z,32.40
2019-05-25T15:22:00.493Z,32.10
2019-05-25T15:24:29.275Z,32.30
2019-05-25T15:26:57.998Z,32.20
2019-05-25T15:29:26.752Z,32.10
2019-05-25T15:31:55.418Z,31.90
2019-05-25T15:34:24.239Z,32.00
2019-05-25T15:36:52.898Z,31.80
2019-05-25T15:39:21.569Z,31.70
2019-05-25T15:41:50.509Z,31.40
2019-05-25T15:44:19.208Z,31.50
2019-05-25T15:46:47.934Z,31.30
2019-05-25T15:49:16.691Z,31.80
2019-05-25T15:51:45.406Z,31.80
2019-05-25T15:54:14.139Z,31.70
2019-05-25T15:56:43.426Z,31.60
2019-05-25T15:59:12.146Z,31.60
2019-05-25T16:01:40.846Z,31.90
2019-05-25T16:04:09.555Z,31.90
2019-05-25T16:06:38.234Z,31.90
2019-05-25T16:09:08.068Z,31.60
2019-05-25T16:11:36.741Z,31.20
2019-05-25T16:14:07.587Z,31.30
2019-05-25T16:16:36.111Z,31.90
2019-05-25T16:19:05.431Z,31.60
2019-05-25T16:21:34.112Z,31.50
2019-05-25T16:24:02.805Z,31.60
2019-05-25T16:26:44.873Z,31.40
2019-05-25T16:29:01.864Z,31.50
2019-05-25T16:31:30.553Z,31.40
2019-05-25T16:33:59.218Z,31.60
2019-05-25T16:36:28.048Z,31.40
2019-05-25T16:38:56.752Z,31.40
2019-05-25T16:41:25.635Z,31.60
2019-05-25T16:43:54.300Z,31.50
2019-05-25T16:46:23.042Z,31.80
2019-05-25T16:48:51.776Z,32.10
2019-05-25T16:51:20.479Z,32.10
2019-05-25T16:53:49.182Z,31.90
2019-05-25T16:56:17.903Z,31.90
2019-05-25T16:58:46.619Z,31.90
2019-05-25T17:01:17.949Z,31.80
2019-05-25T17:03:45.870Z,31.70
2019-05-25T17:06:17.740Z,32.00
2019-05-25T17:08:46.407Z,32.00
2019-05-25T17:11:15.106Z,31.70
2019-05-25T17:13:43.953Z,31.30
2019-05-25T17:16:13.077Z,31.60
2019-05-25T17:18:41.952Z,31.80
2019-05-25T17:21:10.665Z,31.50
2019-05-25T17:23:40.295Z,31.80
2019-05-25T17:26:09.050Z,31.70
2019-05-25T17:28:37.978Z,31.70
2019-05-25T17:31:06.690Z,31.80
2019-05-25T17:33:45.606Z,31.90
2019-05-25T17:36:13.091Z,32.00
2019-05-25T17:38:42.134Z,32.10
2019-05-25T17:41:11.013Z,32.30
2019-05-25T17:43:39.831Z,31.80
2019-05-25T17:46:08.546Z,31.80
2019-05-25T17:48:37.273Z,31.60
2019-05-25T17:51:06.041Z,31.80
2019-05-25T17:53:34.733Z,32.10
2019-05-25T17:56:03.445Z,32.20
2019-05-25T17:58:32.187Z,32.30
2019-05-25T18:01:00.872Z,32.20
2019-05-25T18:03:29.622Z,32.10
2019-05-25T18:05:58.401Z,32.10
2019-05-25T18:08:27.081Z,32.30
2019-05-25T18:10:55.818Z,31.80
2019-05-25T18:13:24.486Z,32.00
2019-05-25T18:15:53.461Z,32.10
2019-05-25T18:18:22.277Z,32.30
2019-05-25T18:20:51.391Z,32.10
2019-05-25T18:23:20.407Z,32.00
2019-05-25T18:25:49.725Z,31.80
2019-05-25T18:28:18.591Z,32.00
2019-05-25T18:30:47.293Z,32.10
2019-05-25T18:33:16.063Z,32.10
2019-05-25T18:35:44.800Z,32.10
2019-05-25T18:38:13.472Z,32.20
2019-05-25T18:40:42.181Z,32.10
2019-05-25T18:43:10.870Z,32.00
2019-05-25T18:45:39.544Z,31.90
2019-05-25T18:48:08.579Z,31.80
2019-05-25T18:50:37.434Z,32.10
2019-05-25T18:53:06.135Z,32.10
2019-05-25T18:55:35.757Z,32.10
2019-05-25T18:58:04.432Z,32.20
2019-05-25T19:00:33.207Z,32.20
2019-05-25T19:03:02.257Z,32.20
2019-05-25T19:05:30.978Z,32.10
2019-05-25T19:07:59.675Z,32.00
2019-05-25T19:10:28.379Z,32.20
2019-05-25T19:12:57.054Z,32.20
2019-05-25T19:15:27.463Z,32.10
2019-05-25T19:17:56.152Z,32.00
2019-05-25T19:20:24.925Z,31.80
2019-05-25T19:22:53.784Z,31.70
2019-05-25T19:25:22.693Z,31.70
2019-05-25T19:27:51.418Z,31.60
2019-05-25T19:30:20.634Z,31.60
2019-05-25T19:32:49.311Z,31.50
2019-05-25T19:35:18.296Z,32.00
2019-05-25T19:37:47.010Z,32.80
2019-05-25T19:40:15.812Z,33.70
2019-05-25T19:42:44.553Z,34.10
2019-05-25T19:45:13.524Z,34.50
2019-05-25T19:47:42.410Z,34.50
2019-05-25T19:50:11.576Z,34.50
2019-05-25T19:52:40.394Z,34.90
2019-05-25T19:55:09.474Z,35.90
2019-05-25T19:57:38.260Z,35.80
2019-05-25T20:00:08.376Z,36.10
2019-05-25T20:02:37.032Z,36.30
2019-05-25T20:05:15.668Z,36.40
2019-05-25T20:07:37.735Z,36.60
2019-05-25T20:10:07.441Z,36.70
2019-05-25T20:12:36.131Z,36.80
2019-05-25T20:15:10.300Z,36.90
2019-05-25T20:17:39.005Z,36.90
2019-05-25T20:20:08.491Z,36.90
2019-05-25T20:22:37.196Z,37.10
2019-05-25T20:25:07.081Z,37.20
2019-05-25T20:27:35.770Z,37.10
2019-05-25T20:30:06.750Z,37.20
2019-05-25T20:32:35.475Z,37.20
2019-05-25T20:35:06.004Z,37.30
2019-05-25T20:37:34.673Z,37.40
2019-05-25T20:40:04.362Z,37.50
2019-05-25T20:42:33.284Z,37.50
2019-05-25T20:45:02.126Z,37.50
2019-05-25T20:47:31.030Z,37.90
2019-05-25T20:49:59.754Z,37.80
2019-05-25T20:52:28.431Z,37.40
2019-05-25T20:54:57.145Z,37.40
2019-05-25T20:57:25.838Z,37.50
2019-05-25T20:59:54.558Z,37.70
2019-05-25T21:02:23.215Z,37.40
2019-05-25T21:04:52.073Z,37.60
2019-05-25T21:07:20.824Z,37.60
2019-05-25T21:09:50.792Z,37.40
2019-05-25T21:12:19.458Z,37.60
2019-05-25T21:14:48.163Z,37.50
2019-05-25T21:17:16.909Z,37.50
2019-05-25T21:19:45.630Z,37.60
2019-05-25T21:22:14.383Z,37.30
2019-05-25T21:24:43.156Z,37.20
2019-05-25T21:27:11.834Z,37.20
2019-05-25T21:29:40.504Z,37.30
2019-05-25T21:32:09.327Z,37.20
2019-05-25T21:34:38.029Z,37.30
2019-05-25T21:37:06.794Z,37.40
2019-05-25T21:39:35.561Z,37.30
2019-05-25T21:42:23.487Z,37.40
2019-05-25T21:44:53.571Z,37.40
2019-05-25T21:47:22.272Z,37.30
2019-05-25T21:49:50.927Z,37.60
2019-05-25T21:52:19.623Z,37.80
2019-05-25T21:54:48.346Z,38.40
2019-05-25T21:57:17.067Z,37.90
2019-05-25T21:59:45.959Z,37.90
2019-05-25T22:02:14.625Z,38.10
2019-05-25T22:04:43.523Z,38.10
2019-05-25T22:07:12.213Z,38.30
2019-05-25T22:09:40.914Z,38.60
2019-05-25T22:12:09.636Z,38.90
2019-05-25T22:14:38.525Z,38.70
2019-05-25T22:17:07.202Z,38.60
2019-05-25T22:19:36.040Z,38.80
2019-05-25T22:22:04.986Z,39.00
2019-05-25T22:24:33.695Z,39.10
2019-05-25T22:27:02.373Z,38.90
2019-05-25T22:29:31.076Z,39.20
2019-05-25T22:32:00.061Z,39.40
2019-05-25T22:34:28.771Z,39.60
2019-05-25T22:36:57.459Z,39.50
2019-05-25T22:39:26.177Z,39.80
2019-05-25T22:41:54.831Z,39.70
2019-05-25T22:44:23.874Z,39.80
2019-05-25T22:46:52.774Z,39.90
2019-05-25T22:49:22.095Z,39.90
2019-05-25T22:51:50.773Z,40.10
2019-05-25T22:54:19.802Z,40.10
2019-05-25T22:56:48.482Z,40.20
2019-05-25T22:59:36.434Z,40.50
2019-05-25T23:02:05.200Z,40.30
2019-05-25T23:04:34.153Z,40.10
2019-05-25T23:07:02.918Z,40.40
2019-05-25T23:09:31.665Z,40.80
2019-05-25T23:12:00.543Z,40.60
2019-05-25T23:14:29.239Z,40.40
2019-05-25T23:16:58.061Z,41.00
2019-05-25T23:19:26.788Z,41.00
2019-05-25T23:21:55.440Z,41.30
2019-05-25T23:24:24.333Z,41.40
2019-05-25T23:26:52.993Z,41.40
2019-05-25T23:29:21.672Z,41.40
2019-05-25T23:31:50.359Z,41.50
2019-05-25T23:34:19.226Z,41.50
2019-05-25T23:36:47.916Z,41.50
2019-05-25T23:39:16.579Z,41.70
2019-05-25T23:41:45.335Z,41.80
2019-05-25T23:44:14.007Z,41.90
2019-05-25T23:46:42.740Z,42.00
2019-05-25T23:49:11.493Z,42.10
2019-05-25T23:51:40.206Z,42.00
2019-05-25T23:54:08.888Z,41.80
2019-05-25T23:56:37.578Z,42.10
2019-05-25T23:59:06.343Z,42.30
